createdAt,value
2022-10-09T00:05:50.557Z,8.38
2022-10-09T00:15:55.070Z,16.33
2022-10-09T00:26:01.084Z,10.63
2022-10-09T00:36:08.598Z,10.40
2022-10-09T00:46:21.519Z,10.83
2022-10-09T00:56:25.181Z,8.47
2022-10-09T01:06:43.288Z,8.30
2022-10-09T01:16:53.604Z,10.77
2022-10-09T01:27:05.640Z,11.65
2022-10-09T01:37:13.490Z,10.60
2022-10-09T01:47:23.906Z,9.33
2022-10-09T01:57:39.907Z,8.53
2022-10-09T02:07:42.135Z,9.63
2022-10-09T02:17:46.954Z,7.97
2022-10-09T02:27:48.908Z,12.63
2022-10-09T02:37:51.278Z,8.23
2022-10-09T02:47:53.659Z,8.37
2022-10-09T02:57:58.227Z,11.20
2022-10-09T03:08:02.833Z,12.90
2022-10-09T03:18:04.998Z,13.30
2022-10-09T03:28:10.392Z,13.80
2022-10-09T03:38:17.086Z,12.17
2022-10-09T03:48:21.582Z,14.47
2022-10-09T03:58:28.388Z,13.60
2022-10-09T04:08:33.115Z,13.03
2022-10-09T04:18:37.303Z,15.57
2022-10-09T04:28:39.783Z,14.00
2022-10-09T04:38:41.958Z,14.23
2022-10-09T04:48:46.840Z,12.67
2022-10-09T04:58:51.447Z,14.27
2022-10-09T05:08:56.562Z,18.17
2022-10-09T05:19:00.132Z,18.80
2022-10-09T05:29:09.549Z,15.20
2022-10-09T05:39:16.246Z,18.13
2022-10-09T05:49:27.580Z,17.57
2022-10-09T05:59:29.595Z,15.03
2022-10-09T06:09:38.838Z,15.43
2022-10-09T06:19:43.831Z,17.43
2022-10-09T06:29:48.566Z,12.47
2022-10-09T06:39:50.657Z,14.67
2022-10-09T06:49:57.449Z,14.63
2022-10-09T06:59:59.802Z,15.60
2022-10-09T07:10:01.855Z,11.83
2022-10-09T07:20:04.077Z,6.13
2022-10-09T07:30:08.522Z,6.57
2022-10-09T07:40:16.996Z,8.30
2022-10-09T07:50:21.242Z,6.43
2022-10-09T08:00:25.776Z,9.13
2022-10-09T08:10:32.468Z,9.60
2022-10-09T08:20:36.533Z,8.53
2022-10-09T08:30:40.229Z,10.00
2022-10-09T08:40:53.833Z,11.23
2022-10-09T08:51:00.356Z,10.83
2022-10-09T09:01:22.196Z,7.73
2022-10-09T09:11:42.596Z,7.97
2022-10-09T09:21:52.399Z,12.03
2022-10-09T09:32:02.375Z,10.10
2022-10-09T09:42:07.353Z,9.65
2022-10-09T09:52:12.127Z,5.18
2022-10-09T10:02:19.504Z,5.30
2022-10-09T10:12:25.008Z,9.37
2022-10-09T10:22:28.307Z,7.45
2022-10-09T10:32:34.601Z,6.35
2022-10-09T10:43:08.166Z,14.20
2022-10-09T10:53:26.636Z,11.57
2022-10-09T11:03:42.900Z,5.20
2022-10-09T11:13:59.442Z,5.80
2022-10-09T11:24:57.027Z,7.85
2022-10-09T11:35:04.205Z,6.10
2022-10-09T11:45:16.539Z,9.18
2022-10-09T11:55:22.861Z,7.80
2022-10-09T12:05:29.913Z,8.13
2022-10-09T12:15:53.844Z,7.72
2022-10-09T12:25:56.551Z,6.75
2022-10-09T12:36:30.352Z,6.00
2022-10-09T12:46:37.233Z,5.45
2022-10-09T12:56:42.476Z,8.23
2022-10-09T13:06:50.074Z,7.28
2022-10-09T13:16:52.204Z,7.53
2022-10-09T13:26:56.586Z,5.40
2022-10-09T13:37:03.207Z,6.90
2022-10-09T13:47:09.978Z,6.70
2022-10-09T13:57:12.372Z,6.32
2022-10-09T14:07:16.874Z,7.20
2022-10-09T14:17:19.151Z,8.88
2022-10-09T14:27:21.355Z,10.93
2022-10-09T14:37:41.011Z,5.88
2022-10-09T14:47:44.044Z,4.90
2022-10-09T14:57:48.685Z,6.65
2022-10-09T15:07:50.937Z,8.50
2022-10-09T15:17:55.432Z,9.03
2022-10-09T15:28:03.781Z,8.20
2022-10-09T15:38:09.222Z,7.37
2022-10-09T15:48:18.955Z,8.83
2022-10-09T15:58:25.688Z,9.67
2022-10-09T16:08:30.101Z,8.83
2022-10-09T16:18:34.715Z,11.17
2022-10-09T16:28:44.446Z,7.20
2022-10-09T16:38:49.073Z,8.67
2022-10-09T16:48:59.330Z,13.00
2022-10-09T16:59:06.212Z,11.77
2022-10-09T17:09:14.521Z,7.90
2022-10-09T17:19:20.071Z,10.37
2022-10-09T17:29:28.482Z,12.20
2022-10-09T17:39:35.361Z,7.27
2022-10-09T17:49:39.667Z,8.20
2022-10-09T17:59:42.061Z,8.07
2022-10-09T18:09:50.597Z,7.80
2022-10-09T18:19:56.234Z,12.47
2022-10-09T18:30:01.228Z,18.60
2022-10-09T18:40:06.088Z,12.53
2022-10-09T18:50:10.457Z,15.77
2022-10-09T19:00:17.878Z,16.93
2022-10-09T19:10:22.634Z,16.07
2022-10-09T19:20:27.947Z,18.30
2022-10-09T19:30:30.045Z,20.10
2022-10-09T19:40:34.778Z,18.07
2022-10-09T19:50:46.475Z,16.03
2022-10-09T20:00:49.156Z,22.40
2022-10-09T20:10:51.134Z,19.00
2022-10-09T20:20:53.196Z,16.43
2022-10-09T20:31:00.478Z,17.83
2022-10-09T20:41:08.928Z,19.30
2022-10-09T20:51:19.345Z,22.90
2022-10-09T21:01:28.439Z,19.47
2022-10-09T21:11:35.454Z,19.03
2022-10-09T21:21:39.307Z,19.57
2022-10-09T21:31:45.555Z,20.03
2022-10-09T21:41:53.968Z,17.77
2022-10-09T21:51:58.287Z,17.03
2022-10-09T22:02:03.073Z,20.60
2022-10-09T22:12:05.168Z,24.60
2022-10-09T22:22:10.719Z,21.97
2022-10-09T22:32:17.946Z,21.17
2022-10-09T22:42:19.937Z,22.30
2022-10-09T22:52:21.923Z,23.67
2022-10-09T23:02:23.996Z,24.47
2022-10-09T23:12:28.163Z,18.77
2022-10-09T23:22:35.343Z,22.67
2022-10-09T23:32:37.374Z,21.47
2022-10-09T23:42:41.865Z,23.23
2022-10-09T23:52:46.935Z,22.83
